Time;durP1;ratioP1;P1;durP2;ratioP2;P2;SDS_P1;SDS_P2;PMS_P1;PMS_P2;Temp;Humidity;BMP_temperature;BMP_pressure;BME280_temperature;BME280_humidity;BME280_pressure;Samples;Min_cycle;Max_cycle;Signal;HPM_P1;HPM_P2
2022/08/10 00:01:51;;;;;;;1.65;1.55;;;20.20;89.80;;;;;;5094742;28;20224;-89
2022/08/10 00:04:21;;;;;;;1.95;1.67;;;20.20;89.30;;;;;;5095028;28;20239;-89
2022/08/10 00:06:51;;;;;;;5.65;1.95;;;20.10;89.30;;;;;;5094854;28;20208;-89
2022/08/10 00:09:20;;;;;;;1.48;1.38;;;20.10;90.00;;;;;;5094472;28;20196;-91
2022/08/10 00:11:49;;;;;;;1.48;1.38;;;20.10;89.50;;;;;;5094838;28;20240;-91
2022/08/10 00:14:18;;;;;;;1.45;1.35;;;20.10;89.90;;;;;;5094811;28;20204;-91
2022/08/10 00:16:47;;;;;;;1.58;1.40;;;20.00;90.00;;;;;;5094430;28;20250;-89
2022/08/10 00:19:17;;;;;;;2.38;1.35;;;20.00;90.30;;;;;;5094093;28;20220;-91
2022/08/10 00:21:47;;;;;;;1.55;1.40;;;20.00;90.40;;;;;;5094772;28;20224;-89
2022/08/10 00:24:15;;;;;;;4.88;1.98;;;19.90;90.40;;;;;;5094264;28;20212;-88
2022/08/10 00:26:44;;;;;;;1.70;1.60;;;19.90;90.30;;;;;;5094136;28;20209;-89
2022/08/10 00:29:32;;;;;;;1.58;1.42;;;19.90;90.80;;;;;;5094045;28;20200;-89
2022/08/10 00:32:01;;;;;;;1.60;1.50;;;19.90;90.40;;;;;;5094030;28;20221;-89
2022/08/10 00:34:32;;;;;;;2.22;1.80;;;19.80;90.70;;;;;;5094373;28;20263;-88
2022/08/10 00:37:01;;;;;;;1.63;1.38;;;19.80;90.70;;;;;;5094222;28;20235;-89
2022/08/10 00:39:29;;;;;;;1.58;1.45;;;19.80;91.00;;;;;;5097245;28;20224;-90
2022/08/10 00:42:06;;;;;;;3.63;1.63;;;19.80;90.90;;;;;;5093888;28;20277;-90
2022/08/10 00:44:36;;;;;;;2.42;1.60;;;19.70;91.00;;;;;;5094105;28;20299;-89
2022/08/10 00:47:05;;;;;;;2.22;1.95;;;19.70;91.30;;;;;;5093847;28;20243;-90
2022/08/10 00:49:35;;;;;;;2.05;1.30;;;19.70;91.20;;;;;;5094226;28;20341;-89
2022/08/10 00:52:05;;;;;;;2.47;2.08;;;19.70;91.10;;;;;;5093789;28;20285;-88
2022/08/10 00:54:35;;;;;;;2.25;1.70;;;19.70;91.30;;;;;;5093435;28;20268;-91
2022/08/10 00:57:04;;;;;;;1.75;1.65;;;19.70;91.40;;;;;;5093695;28;20291;-89
2022/08/10 00:59:46;;;;;;;1.50;1.40;;;19.60;91.60;;;;;;5093690;28;20223;-88
2022/08/10 01:02:28;;;;;;;1.30;1.23;;;19.60;91.50;;;;;;5093917;28;20200;-87
2022/08/10 01:04:59;;;;;;;1.08;1.08;;;19.60;91.90;;;;;;5093981;28;20205;-88
2022/08/10 01:08:10;;;;;;;1.63;1.50;;;19.60;92.00;;;;;;5093732;28;20216;-88
2022/08/10 01:10:44;;;;;;;1.40;1.30;;;19.50;92.10;;;;;;5094297;28;20222;-88
2022/08/10 01:13:21;;;;;;;1.88;1.67;;;19.50;92.10;;;;;;5095432;28;20287;-88
2022/08/10 01:15:56;;;;;;;1.95;1.77;;;19.50;92.30;;;;;;5115421;28;20192;-88
2022/08/10 01:18:40;;;;;;;1.40;1.30;;;19.50;92.30;;;;;;5112065;28;20199;-89
2022/08/10 01:21:29;;;;;;;1.50;1.40;;;19.50;93.20;;;;;;5093982;28;20248;-89
2022/08/10 01:24:15;;;;;;;1.73;1.63;;;19.40;92.30;;;;;;5093430;28;20283;-89
2022/08/10 01:27:05;;;;;;;1.83;1.73;;;19.40;92.60;;;;;;5093293;28;20197;-89
2022/08/10 01:32:46;;;;;;;1.75;1.55;;;19.40;92.70;;;;;;5089941;27;20578;-89
2022/08/10 01:35:19;;;;;;;1.70;1.55;;;19.40;92.90;;;;;;5090390;28;20239;-89
2022/08/10 01:37:54;;;;;;;1.90;1.75;;;19.30;92.70;;;;;;5090486;28;20267;-90
2022/08/10 01:40:25;;;;;;;1.63;1.52;;;19.30;93.10;;;;;;5090601;28;20230;-89
2022/08/10 01:42:56;;;;;;;1.50;1.40;;;19.30;93.10;;;;;;5090046;28;20239;-89
2022/08/10 01:45:40;;;;;;;2.03;1.70;;;19.30;93.00;;;;;;5090059;28;20219;-90
2022/08/10 01:48:27;;;;;;;4.57;1.52;;;19.20;93.80;;;;;;5089837;28;20207;-89
2022/08/10 01:51:01;;;;;;;2.15;1.98;;;19.20;93.50;;;;;;5090131;28;20232;-89
2022/08/10 01:53:35;;;;;;;1.95;1.85;;;19.20;93.40;;;;;;5089873;28;20289;-89
2022/08/10 01:56:10;;;;;;;1.75;1.63;;;19.20;93.90;;;;;;5090188;28;20204;-89
2022/08/10 01:58:40;;;;;;;3.15;2.13;;;19.10;93.40;;;;;;5090349;28;20208;-89
2022/08/10 02:01:13;;;;;;;4.10;2.92;;;19.20;93.60;;;;;;5089423;28;20311;-89
2022/08/10 02:03:48;;;;;;;1.73;1.63;;;19.10;93.80;;;;;;5089222;28;20204;-89
2022/08/10 02:06:36;;;;;;;1.70;1.60;;;19.10;94.10;;;;;;5089609;28;20228;-89
2022/08/10 02:09:06;;;;;;;1.75;1.65;;;19.10;94.10;;;;;;5090085;28;20212;-89
2022/08/10 02:11:35;;;;;;;1.52;1.42;;;19.00;94.10;;;;;;5089224;28;20228;-88
2022/08/10 02:14:29;;;;;;;1.50;1.40;;;19.00;94.50;;;;;;5089157;28;20215;-89
2022/08/10 02:17:03;;;;;;;2.55;1.30;;;19.00;94.60;;;;;;5089562;28;20296;-89
2022/08/10 02:19:36;;;;;;;1.63;1.52;;;18.90;95.00;;;;;;5089099;28;20292;-89
2022/08/10 02:22:06;;;;;;;1.80;1.70;;;18.90;95.10;;;;;;5089076;28;20304;-89
2022/08/10 02:24:57;;;;;;;1.92;1.75;;;18.90;95.10;;;;;;5089137;28;20200;-90
2022/08/10 02:27:27;;;;;;;3.08;1.73;;;18.80;95.40;;;;;;5089216;28;20235;-88
2022/08/10 02:29:57;;;;;;;2.10;1.40;;;18.80;95.30;;;;;;5089360;28;20228;-89
2022/08/10 02:32:27;;;;;;;2.47;2.28;;;18.80;95.80;;;;;;5088700;28;20246;-88
2022/08/10 02:35:18;;;;;;;2.42;1.95;;;18.70;95.70;;;;;;5089362;28;20220;-89
2022/08/10 02:37:53;;;;;;;1.55;1.45;;;18.60;96.00;;;;;;5089211;28;20215;-89
2022/08/10 02:40:24;;;;;;;1.55;1.45;;;18.60;96.00;;;;;;5089115;28;20224;-89
2022/08/10 02:43:20;;;;;;;1.90;1.80;;;18.60;96.30;;;;;;5078907;28;20231;-90
2022/08/10 02:46:13;;;;;;;2.05;1.85;;;18.60;96.50;;;;;;5075295;28;20205;-89
2022/08/10 02:48:54;;;;;;;2.13;1.63;;;18.50;97.70;;;;;;5075453;28;20204;-89
2022/08/10 02:51:30;;;;;;;1.35;1.30;;;18.50;96.90;;;;;;5075405;28;20228;-89
2022/08/10 02:54:21;;;;;;;2.28;1.98;;;18.50;97.10;;;;;;5075083;28;20205;-89
2022/08/10 02:56:55;;;;;;;5.63;1.88;;;18.50;97.60;;;;;;5075143;28;20209;-89
2022/08/10 02:59:27;;;;;;;1.67;1.58;;;18.40;97.50;;;;;;5075014;28;20213;-89
2022/08/10 03:02:12;;;;;;;1.40;1.30;;;18.40;98.20;;;;;;5075536;28;20220;-89
2022/08/10 03:04:45;;;;;;;1.83;1.73;;;18.40;98.30;;;;;;5075019;28;20287;-89
2022/08/10 03:07:32;;;;;;;1.70;1.60;;;18.40;98.80;;;;;;5075130;28;20225;-88
2022/08/10 03:10:16;;;;;;;1.42;1.30;;;18.30;98.70;;;;;;5074670;28;20228;-89
2022/08/10 03:12:45;;;;;;;2.63;1.85;;;18.30;99.40;;;;;;5074745;28;20248;-89
2022/08/10 03:15:15;;;;;;;2.20;1.55;;;18.30;99.70;;;;;;5075174;28;20193;-88
2022/08/10 03:17:45;;;;;;;4.63;1.60;;;18.20;99.70;;;;;;5075378;28;20292;-90
2022/08/10 03:20:28;;;;;;;1.83;1.67;;;18.30;99.90;;;;;;5074336;28;20225;-89
2022/08/10 03:23:11;;;;;;;1.60;1.50;;;18.20;99.90;;;;;;5074815;28;20197;-88
2022/08/10 03:25:42;;;;;;;2.03;1.65;;;18.20;99.90;;;;;;5074762;28;20209;-89
2022/08/10 03:28:23;;;;;;;1.70;1.60;;;18.20;99.90;;;;;;5074705;28;20205;-88
2022/08/10 03:30:52;;;;;;;1.75;1.65;;;18.10;99.90;;;;;;5074535;28;20240;-90
2022/08/10 03:33:22;;;;;;;2.33;1.85;;;18.00;99.90;;;;;;5074408;28;20224;-80
2022/08/10 03:35:51;;;;;;;2.28;1.80;;;18.10;99.90;;;;;;5070978;28;20196;-80
2022/08/10 03:38:43;;;;;;;1.88;1.70;;;18.10;99.90;;;;;;5064420;28;20197;-80
2022/08/10 03:41:13;;;;;;;1.70;1.60;;;18.00;99.90;;;;;;5061033;28;20296;-87
2022/08/10 03:43:46;;;;;;;1.77;1.67;;;18.10;99.90;;;;;;5054466;28;20202;-86
2022/08/10 03:46:18;;;;;;;2.05;1.80;;;18.10;99.90;;;;;;5053284;28;20261;-86
2022/08/10 03:48:49;;;;;;;1.92;1.83;;;18.10;99.90;;;;;;5053642;28;20201;-86
2022/08/10 03:51:19;;;;;;;2.40;2.20;;;18.00;99.90;;;;;;5052922;28;20225;-86
2022/08/10 03:53:50;;;;;;;1.98;1.88;;;17.90;99.90;;;;;;5052745;28;20204;-86
2022/08/10 03:56:34;;;;;;;5.75;1.85;;;17.90;99.90;;;;;;5053284;28;20285;-86
2022/08/10 03:59:04;;;;;;;2.15;1.83;;;17.90;99.90;;;;;;5053424;28;20212;-86
2022/08/10 04:01:33;;;;;;;1.95;1.85;;;17.90;99.90;;;;;;5053937;28;20309;-86
2022/08/10 04:04:21;;;;;;;11.13;2.33;;;17.90;99.90;;;;;;5053557;28;20220;-86
2022/08/10 04:06:53;;;;;;;3.08;2.13;;;17.90;99.90;;;;;;5053775;28;20218;-86
2022/08/10 04:09:26;;;;;;;1.80;1.45;;;17.90;99.90;;;;;;5053490;28;20237;-86
2022/08/10 04:12:15;;;;;;;2.10;1.90;;;17.90;99.90;;;;;;5053282;28;20234;-86
2022/08/10 04:14:43;;;;;;;2.00;1.85;;;17.90;99.90;;;;;;5065539;28;20204;-86
2022/08/10 04:17:20;;;;;;;5.55;2.50;;;17.90;99.90;;;;;;5054527;28;20209;-87
2022/08/10 04:20:16;;;;;;;2.38;2.17;;;17.90;99.90;;;;;;5072182;28;20212;-86
2022/08/10 04:22:48;;;;;;;2.40;2.22;;;17.90;99.90;;;;;;5073992;28;20242;-87
2022/08/10 04:25:19;;;;;;;2.20;2.00;;;17.90;99.90;;;;;;5073909;28;20201;-86
2022/08/10 04:27:49;;;;;;;5.10;2.13;;;17.90;99.90;;;;;;5074009;28;20301;-87
2022/08/10 04:30:19;;;;;;;1.80;1.70;;;17.90;99.90;;;;;;5073351;28;20259;-86
2022/08/10 04:32:53;;;;;;;4.40;2.30;;;17.90;99.90;;;;;;5073551;28;20240;-86
2022/08/10 04:35:23;;;;;;;4.40;2.30;;;17.90;99.90;;;;;;5073268;28;20225;-86
2022/08/10 04:37:53;;;;;;;2.10;1.40;;;17.90;99.90;;;;;;5075990;28;20208;-86
2022/08/10 04:40:30;;;;;;;1.98;1.77;;;18.00;99.90;;;;;;5092209;28;20225;-86
2022/08/10 04:43:01;;;;;;;1.98;1.80;;;18.00;99.90;;;;;;5085515;28;20208;-92
2022/08/10 04:45:40;;;;;;;4.85;2.42;;;18.00;99.90;;;;;;5073452;28;20229;-92
2022/08/10 04:48:19;;;;;;;2.03;1.80;;;18.10;99.90;;;;;;5073054;28;20204;-93
2022/08/10 04:51:07;;;;;;;2.03;1.83;;;18.10;99.90;;;;;;5073123;28;20227;-92
2022/08/10 04:53:42;;;;;;;2.33;2.10;;;18.10;99.90;;;;;;5073309;28;20213;-92
2022/08/10 04:56:32;;;;;;;4.32;2.28;;;18.10;99.90;;;;;;5074012;28;20201;-92
2022/08/10 04:59:00;;;;;;;2.65;1.73;;;18.20;99.90;;;;;;5072679;28;20220;-91
2022/08/10 05:01:31;;;;;;;2.78;2.20;;;18.20;99.90;;;;;;5073199;28;20229;-91
2022/08/10 05:04:19;;;;;;;3.60;2.22;;;18.20;99.90;;;;;;5073350;28;20207;-92
2022/08/10 05:07:09;;;;;;;2.95;2.55;;;18.20;99.90;;;;;;5072858;28;20339;-92
2022/08/10 05:09:38;;;;;;;2.45;1.95;;;18.30;99.90;;;;;;5072575;28;20270;-92
2022/08/10 05:12:28;;;;;;;1.90;1.80;;;18.30;99.90;;;;;;5072966;28;20247;-92
2022/08/10 05:14:56;;;;;;;1.85;1.70;;;18.30;99.90;;;;;;5072421;28;20262;-92
2022/08/10 05:17:25;;;;;;;2.05;1.85;;;18.30;99.90;;;;;;5073114;28;20270;-93
2022/08/10 05:19:53;;;;;;;2.55;2.35;;;18.30;99.90;;;;;;5072383;28;20227;-93
2022/08/10 05:22:33;;;;;;;2.22;1.88;;;18.30;99.90;;;;;;5073053;28;20220;-93
2022/08/10 05:25:03;;;;;;;3.03;2.25;;;18.30;99.90;;;;;;5073316;28;20197;-92
2022/08/10 05:27:33;;;;;;;1.95;1.85;;;18.40;99.90;;;;;;5072633;28;20221;-92
2022/08/10 05:30:02;;;;;;;2.63;2.08;;;18.40;99.90;;;;;;5072175;28;20209;-93
2022/08/10 05:32:31;;;;;;;2.42;2.22;;;18.50;99.90;;;;;;5072954;28;20236;-92
2022/08/10 05:35:20;;;;;;;2.97;2.10;;;18.50;99.90;;;;;;5072420;28;20209;-93
2022/08/10 05:37:50;;;;;;;3.30;2.30;;;18.50;99.90;;;;;;5068818;28;20228;-93
2022/08/10 05:40:39;;;;;;;4.20;2.22;;;18.60;99.90;;;;;;5062377;28;20221;-94
2022/08/10 05:43:17;;;;;;;2.70;2.00;;;18.70;99.90;;;;;;5072603;28;20208;-93
2022/08/10 05:45:46;;;;;;;2.53;2.33;;;18.70;99.90;;;;;;5053736;28;20202;-91
2022/08/10 05:48:36;;;;;;;2.60;2.40;;;18.80;99.90;;;;;;5069712;28;20234;-91
2022/08/10 05:51:25;;;;;;;2.20;1.92;;;19.00;99.90;;;;;;5056281;28;20252;-90
2022/08/10 05:53:55;;;;;;;2.53;2.25;;;19.00;99.90;;;;;;5071464;28;20266;-90
2022/08/10 05:56:35;;;;;;;4.72;2.40;;;19.10;99.90;;;;;;5071366;28;20225;-87
2022/08/10 05:59:27;;;;;;;3.15;2.20;;;19.20;99.90;;;;;;5072217;28;20197;-88
2022/08/10 06:02:24;;;;;;;2.50;2.30;;;19.30;99.90;;;;;;5070645;28;20225;-85
2022/08/10 06:05:06;;;;;;;3.70;3.03;;;19.40;99.90;;;;;;5064175;28;20198;-85
2022/08/10 06:07:38;;;;;;;4.40;3.00;;;19.50;99.90;;;;;;5053000;28;20284;-86
2022/08/10 06:10:11;;;;;;;2.88;2.55;;;19.60;99.90;;;;;;5052409;28;20289;-86
2022/08/10 06:12:40;;;;;;;2.63;2.42;;;19.80;99.90;;;;;;5052603;28;20293;-87
2022/08/10 06:15:23;;;;;;;2.80;1.90;;;19.90;99.90;;;;;;5052800;28;20206;-87
2022/08/10 06:18:14;;;;;;;2.72;2.53;;;20.10;99.90;;;;;;5054346;28;20201;-87
2022/08/10 06:20:42;;;;;;;2.28;2.05;;;20.20;99.90;;;;;;5056471;28;20289;-85
2022/08/10 06:23:12;;;;;;;3.13;2.75;;;20.30;99.90;;;;;;5056128;28;20200;-87
2022/08/10 06:25:40;;;;;;;2.95;2.47;;;20.40;99.90;;;;;;5056514;28;20261;-87
2022/08/10 06:28:32;;;;;;;3.13;2.45;;;20.50;99.90;;;;;;5055823;28;20206;-87
2022/08/10 06:31:04;;;;;;;1.98;1.88;;;20.70;99.90;;;;;;5056137;28;20240;-87
2022/08/10 06:33:35;;;;;;;3.47;2.55;;;20.80;99.90;;;;;;5055655;28;20253;-87
2022/08/10 06:36:05;;;;;;;5.45;1.77;;;20.90;99.90;;;;;;5056345;28;20285;-87
2022/08/10 06:38:38;;;;;;;2.40;2.20;;;21.00;99.90;;;;;;5055742;28;20182;-85
2022/08/10 06:41:11;;;;;;;3.17;2.40;;;21.10;99.90;;;;;;5056207;28;20309;-85
2022/08/10 06:43:52;;;;;;;2.92;2.42;;;21.20;99.90;;;;;;5055750;28;20206;-87
2022/08/10 06:46:23;;;;;;;2.80;2.25;;;21.20;99.90;;;;;;5055534;28;20202;-88
2022/08/10 06:48:56;;;;;;;4.18;2.58;;;21.40;99.90;;;;;;5075469;28;20197;-85
2022/08/10 06:51:26;;;;;;;4.28;2.53;;;21.40;99.90;;;;;;5074622;28;20228;-85
2022/08/10 06:53:59;;;;;;;2.95;1.98;;;21.50;99.90;;;;;;5060067;28;20301;-85
2022/08/10 06:56:32;;;;;;;2.45;2.25;;;21.70;99.90;;;;;;5064755;28;20205;-85
2022/08/10 06:59:11;;;;;;;2.70;2.08;;;21.80;99.90;;;;;;5075924;28;20263;-85
2022/08/10 07:01:57;;;;;;;2.90;2.33;;;21.90;99.70;;;;;;5058446;28;20246;-87
2022/08/10 07:04:31;;;;;;;2.78;2.58;;;22.00;99.90;;;;;;5068697;28;20196;-88
2022/08/10 07:07:04;;;;;;;2.00;1.90;;;22.00;99.80;;;;;;5075578;28;20205;-88
2022/08/10 07:09:36;;;;;;;2.63;2.40;;;22.10;99.70;;;;;;5075344;28;20209;-88
2022/08/10 07:12:07;;;;;;;4.18;2.53;;;22.10;99.90;;;;;;5075025;28;20217;-88
2022/08/10 07:14:41;;;;;;;3.58;2.47;;;22.20;99.70;;;;;;5074906;28;20221;-89
2022/08/10 07:17:12;;;;;;;2.60;2.38;;;22.40;99.60;;;;;;5075699;28;20205;-88
2022/08/10 07:19:46;;;;;;;2.40;2.20;;;22.60;98.90;;;;;;5075096;28;20229;-88
2022/08/10 07:22:22;;;;;;;1.83;1.73;;;22.70;99.10;;;;;;5075664;28;20342;-88
2022/08/10 07:25:12;;;;;;;2.88;2.08;;;22.90;99.00;;;;;;5074937;28;20210;-87
2022/08/10 07:27:42;;;;;;;2.05;1.85;;;23.10;98.10;;;;;;5075266;28;20201;-86
2022/08/10 07:30:30;;;;;;;2.28;2.05;;;23.40;97.40;;;;;;5075124;28;20232;-86
2022/08/10 07:33:09;;;;;;;3.35;2.63;;;23.60;97.70;;;;;;5074775;28;20197;-85
2022/08/10 07:35:39;;;;;;;2.20;2.00;;;23.90;97.70;;;;;;5075491;28;20249;-87
2022/08/10 07:38:17;;;;;;;2.92;2.58;;;24.10;96.20;;;;;;5075024;28;20236;-89
2022/08/10 07:40:48;;;;;;;4.85;2.97;;;24.30;96.20;;;;;;5075107;28;20225;-88
2022/08/10 07:43:17;;;;;;;2.67;2.47;;;24.40;95.80;;;;;;5075180;28;20225;-90
2022/08/10 07:45:47;;;;;;;2.20;2.10;;;24.70;94.30;;;;;;5074786;28;20193;-86
2022/08/10 07:48:19;;;;;;;4.47;3.17;;;24.90;95.00;;;;;;5075109;28;20208;-89
2022/08/10 07:50:53;;;;;;;3.47;2.75;;;25.20;94.30;;;;;;5075206;28;20259;-88
2022/08/10 07:53:25;;;;;;;2.63;2.42;;;25.70;94.90;;;;;;5074371;28;20209;-89
2022/08/10 07:55:55;;;;;;;3.80;2.28;;;26.20;94.00;;;;;;5070115;28;20257;-91
2022/08/10 07:58:41;;;;;;;2.35;2.10;;;26.80;91.30;;;;;;5076619;28;20213;-89
2022/08/10 08:01:23;;;;;;;2.33;1.95;;;27.20;89.20;;;;;;5059624;28;20249;-89
2022/08/10 08:03:54;;;;;;;2.67;2.13;;;27.60;88.70;;;;;;5078478;28;20213;-89
2022/08/10 08:06:40;;;;;;;2.15;2.05;;;27.90;87.00;;;;;;5082798;28;20215;-91
2022/08/10 08:09:10;;;;;;;2.88;1.80;;;28.30;86.40;;;;;;5070588;28;20197;-94
2022/08/10 08:11:40;;;;;;;1.80;1.70;;;28.50;82.20;;;;;;5074924;28;20232;-94
2022/08/10 08:14:11;;;;;;;3.10;2.05;;;28.60;82.50;;;;;;5057045;28;20220;-95
2022/08/10 08:16:43;;;;;;;2.30;2.15;;;29.00;85.80;;;;;;5060517;28;20232;-92
2022/08/10 08:19:14;;;;;;;2.33;2.13;;;29.50;81.00;;;;;;5054969;28;20220;-90
2022/08/10 08:22:04;;;;;;;2.08;1.88;;;30.00;80.80;;;;;;5065049;28;20209;-95
2022/08/10 08:24:55;;;;;;;2.92;1.95;;;30.30;75.30;;;;;;5074479;28;20196;-92
2022/08/10 08:27:26;;;;;;;1.77;1.67;;;30.30;77.10;;;;;;5074371;28;20259;-94
2022/08/10 08:29:55;;;;;;;1.95;1.80;;;30.60;75.80;;;;;;5074312;28;20224;-95
2022/08/10 08:32:25;;;;;;;2.28;2.17;;;31.00;73.50;;;;;;5074059;28;20220;-94
2022/08/10 08:35:03;;;;;;;2.92;2.63;;;31.30;71.50;;;;;;5074259;28;20224;-89
2022/08/10 08:37:33;;;;;;;1.67;1.58;;;31.60;73.20;;;;;;5070132;28;20197;-90
2022/08/10 08:40:41;;;;;;;2.13;1.85;;;31.70;73.10;;;;;;5069767;28;20230;-91
2022/08/10 08:43:22;;;;;;;10.05;5.03;;;31.80;69.70;;;;;;5072226;28;20284;-73
2022/08/10 08:46:13;;;;;;;1.98;1.80;;;32.10;72.50;;;;;;5072668;28;20225;-91
2022/08/10 08:49:14;;;;;;;1.75;1.65;;;32.10;74.60;;;;;;5074249;28;20275;-92
2022/08/10 08:52:27;;;;;;;1.65;1.52;;;32.30;70.40;;;;;;5066731;28;20213;-91
2022/08/10 08:55:05;;;;;;;2.45;2.28;;;33.00;70.70;;;;;;5053371;28;20261;-90
2022/08/10 08:58:07;;;;;;;1.73;1.60;;;33.50;66.10;;;;;;5053566;28;20204;-90
2022/08/10 09:00:43;;;;;;;1.70;1.60;;;33.80;63.40;;;;;;5071977;28;20255;-92
2022/08/10 09:03:36;;;;;;;2.10;2.00;;;33.40;64.70;;;;;;5073737;28;20275;-90
2022/08/10 09:06:20;;;;;;;4.22;2.38;;;33.60;63.20;;;;;;5071362;28;20255;-91
2022/08/10 09:09:09;;;;;;;2.92;2.08;;;33.90;64.00;;;;;;5071912;28;20204;-90
2022/08/10 09:11:54;;;;;;;1.98;1.85;;;34.10;62.00;;;;;;5070104;28;20217;-90
2022/08/10 09:14:30;;;;;;;3.30;1.83;;;34.30;57.50;;;;;;5061672;28;20220;-91
2022/08/10 09:17:09;;;;;;;1.67;1.58;;;34.40;60.00;;;;;;5072611;28;20203;-92
2022/08/10 09:19:46;;;;;;;1.88;1.77;;;34.70;59.10;;;;;;5073320;28;20192;-93
2022/08/10 09:22:32;;;;;;;2.17;1.98;;;34.80;57.70;;;;;;5063259;28;20244;-91
2022/08/10 09:25:13;;;;;;;3.65;2.15;;;35.20;60.40;;;;;;5072721;28;20299;-91
2022/08/10 09:27:44;;;;;;;1.98;1.80;;;35.50;57.00;;;;;;5072995;28;20235;-91
2022/08/10 09:30:22;;;;;;;4.47;1.92;;;35.80;55.30;;;;;;5067189;28;20282;-94
2022/08/10 09:33:07;;;;;;;4.88;1.85;;;35.90;56.50;;;;;;5064451;28;20197;-92
2022/08/10 09:36:01;;;;;;;2.25;2.00;;;35.80;53.70;;;;;;5061762;28;20199;-92
2022/08/10 09:39:01;;;;;;;2.63;2.42;;;35.50;54.00;;;;;;5055802;28;20204;-93
2022/08/10 09:41:46;;;;;;;2.50;2.30;;;35.10;55.40;;;;;;5060092;28;20222;-90
2022/08/10 09:44:29;;;;;;;2.40;2.20;;;34.60;54.40;;;;;;5054010;28;20296;-87
2022/08/10 09:47:19;;;;;;;3.05;2.00;;;34.60;54.90;;;;;;5071669;28;20291;-87
2022/08/10 09:50:18;;;;;;;2.05;1.95;;;34.80;57.90;;;;;;5071334;28;20207;-88
2022/08/10 09:53:02;;;;;;;6.95;2.05;;;34.80;55.80;;;;;;5073414;28;20204;-87
2022/08/10 09:55:40;;;;;;;1.92;1.83;;;34.80;55.30;;;;;;5075994;28;20223;-87
2022/08/10 09:58:37;;;;;;;2.05;1.95;;;35.00;54.80;;;;;;5075596;28;20200;-87
2022/08/10 10:01:13;;;;;;;2.10;1.73;;;35.20;54.20;;;;;;5075766;28;20227;-87
2022/08/10 10:04:10;;;;;;;1.88;1.77;;;35.30;52.10;;;;;;5075986;28;20200;-87
2022/08/10 10:06:44;;;;;;;1.75;1.60;;;35.30;52.50;;;;;;5075542;28;20306;-88
2022/08/10 10:09:26;;;;;;;1.80;1.70;;;35.50;50.30;;;;;;5075321;28;20260;-88
2022/08/10 10:12:08;;;;;;;1.67;1.58;;;35.70;51.30;;;;;;5076214;28;20228;-88
2022/08/10 10:17:48;;;;;;;1.98;1.67;;;35.90;53.60;;;;;;5075879;28;20258;-87
2022/08/10 10:20:26;;;;;;;2.08;1.98;;;36.20;49.70;;;;;;5075501;28;20224;-88
2022/08/10 10:23:07;;;;;;;2.35;1.83;;;36.50;50.40;;;;;;5075218;28;20205;-88
2022/08/10 10:25:39;;;;;;;1.52;1.42;;;35.90;49.40;;;;;;5075238;28;20287;-87
2022/08/10 10:28:33;;;;;;;2.03;1.83;;;35.10;51.40;;;;;;5075429;28;20220;-88
2022/08/10 10:31:28;;;;;;;1.60;1.50;;;34.70;52.80;;;;;;5075475;28;20228;-89
2022/08/10 10:34:06;;;;;;;2.10;2.00;;;33.80;52.50;;;;;;5075204;28;20208;-88
2022/08/10 10:36:35;;;;;;;1.63;1.52;;;33.20;53.10;;;;;;5074931;28;20283;-88
2022/08/10 10:39:04;;;;;;;1.60;1.50;;;33.30;52.40;;;;;;5074828;28;20255;-88
2022/08/10 10:41:40;;;;;;;2.53;2.33;;;33.70;51.30;;;;;;5074845;28;20240;-88
2022/08/10 10:44:47;;;;;;;2.28;2.05;;;34.30;51.20;;;;;;5075019;28;20205;-88
2022/08/10 10:47:36;;;;;;;2.00;1.90;;;34.90;50.30;;;;;;5075249;28;20287;-89
2022/08/10 10:50:11;;;;;;;2.20;2.00;;;35.30;52.40;;;;;;5074949;28;20263;-89
2022/08/10 10:52:51;;;;;;;2.28;2.08;;;35.50;50.70;;;;;;5075277;28;20276;-88
2022/08/10 10:55:28;;;;;;;2.40;2.20;;;35.40;50.40;;;;;;5074929;28;20300;-88
2022/08/10 10:58:04;;;;;;;2.15;1.88;;;34.60;48.90;;;;;;5074976;28;20231;-88
2022/08/10 11:00:42;;;;;;;1.83;1.73;;;33.60;50.30;;;;;;5075173;28;20227;-88
2022/08/10 11:03:26;;;;;;;4.00;2.42;;;33.30;51.10;;;;;;5074608;28;20216;-88
2022/08/10 11:06:08;;;;;;;3.05;2.20;;;33.50;50.80;;;;;;5075527;28;20224;-89
2022/08/10 11:08:42;;;;;;;1.90;1.80;;;33.70;50.90;;;;;;5074967;28;20205;-89
2022/08/10 11:11:17;;;;;;;1.90;1.80;;;34.00;49.10;;;;;;5075184;28;20235;-89
2022/08/10 11:14:14;;;;;;;1.95;1.85;;;34.70;48.70;;;;;;5074904;28;20204;-89
2022/08/10 11:17:02;;;;;;;2.30;2.08;;;35.20;50.00;;;;;;5075129;28;20207;-89
2022/08/10 11:19:39;;;;;;;1.90;1.80;;;35.70;47.00;;;;;;5074597;28;20290;-89
2022/08/10 11:22:33;;;;;;;6.90;3.25;;;35.70;48.20;;;;;;5074751;28;20215;-88
2022/08/10 11:25:11;;;;;;;2.67;1.95;;;36.10;50.20;;;;;;5074595;28;20250;-88
2022/08/10 11:27:49;;;;;;;2.20;2.10;;;36.40;48.60;;;;;;5075131;28;20292;-88
2022/08/10 11:30:20;;;;;;;2.10;1.92;;;36.50;49.90;;;;;;5074441;28;20255;-88
2022/08/10 11:33:12;;;;;;;2.55;2.35;;;36.80;45.60;;;;;;5074392;28;20232;-88
2022/08/10 11:35:48;;;;;;;2.47;2.28;;;37.10;47.40;;;;;;5074070;28;20288;-88
2022/08/10 11:38:27;;;;;;;2.38;2.05;;;36.80;46.40;;;;;;5074178;28;20298;-88
2022/08/10 11:41:17;;;;;;;3.13;2.42;;;36.30;45.30;;;;;;5074150;28;20216;-89
2022/08/10 11:44:26;;;;;;;4.47;2.53;;;35.50;48.30;;;;;;5074568;28;20201;-87
2022/08/10 11:47:01;;;;;;;4.65;2.47;;;34.80;49.40;;;;;;5073822;28;20288;-88
2022/08/10 11:49:33;;;;;;;2.05;1.90;;;34.90;50.30;;;;;;5073982;28;20228;-88
2022/08/10 11:52:10;;;;;;;2.47;2.20;;;35.40;47.50;;;;;;5073900;28;20315;-87
2022/08/10 11:54:43;;;;;;;2.47;1.67;;;35.60;47.50;;;;;;5073985;28;20204;-88
2022/08/10 11:57:12;;;;;;;2.78;1.65;;;35.70;47.70;;;;;;5074294;28;20268;-88
2022/08/10 11:59:57;;;;;;;1.73;1.63;;;36.00;47.00;;;;;;5074227;28;20235;-88
2022/08/10 12:02:32;;;;;;;2.00;1.80;;;35.70;44.30;;;;;;5075511;28;20208;-87
2022/08/10 12:05:08;;;;;;;1.40;1.38;;;35.40;44.40;;;;;;5094043;28;20200;-87
2022/08/10 12:07:42;;;;;;;2.17;1.98;;;35.20;44.20;;;;;;5093081;28;20227;-87
2022/08/10 12:10:32;;;;;;;1.80;1.70;;;35.20;44.30;;;;;;5073713;28;20228;-87
2022/08/10 12:13:15;;;;;;;1.77;1.67;;;35.60;46.30;;;;;;5073377;28;20227;-87
2022/08/10 12:15:53;;;;;;;1.63;1.55;;;36.10;45.60;;;;;;5072824;28;20204;-88
2022/08/10 12:18:27;;;;;;;2.47;2.25;;;36.40;43.10;;;;;;5073684;28;20211;-88
2022/08/10 12:20:58;;;;;;;2.70;2.17;;;35.80;45.50;;;;;;5073217;28;20292;-89
2022/08/10 12:23:35;;;;;;;2.05;1.95;;;35.10;46.80;;;;;;5073381;28;20279;-88
2022/08/10 12:26:12;;;;;;;13.90;1.92;;;34.60;46.80;;;;;;5073107;28;20318;-88
2022/08/10 12:28:46;;;;;;;2.00;1.90;;;34.60;48.70;;;;;;5073193;28;20282;-90
2022/08/10 12:31:21;;;;;;;5.38;2.15;;;34.70;48.00;;;;;;5073086;28;20240;-87
2022/08/10 12:34:05;;;;;;;2.88;1.95;;;34.90;46.70;;;;;;5073196;28;20232;-88
2022/08/10 12:36:40;;;;;;;3.00;2.70;;;34.70;46.50;;;;;;5073682;28;20212;-87
2022/08/10 12:39:16;;;;;;;2.20;2.00;;;34.80;47.00;;;;;;5073051;28;20219;-91
2022/08/10 12:41:51;;;;;;;1.83;1.73;;;34.60;47.00;;;;;;5072766;28;20228;-88
2022/08/10 12:44:26;;;;;;;1.38;1.38;;;33.80;47.40;;;;;;5073044;28;20232;-88
2022/08/10 12:47:18;;;;;;;1.88;1.58;;;33.50;46.80;;;;;;5072987;28;20228;-88
2022/08/10 12:49:52;;;;;;;2.03;1.92;;;33.50;46.80;;;;;;5072764;28;20242;-88
2022/08/10 12:52:49;;;;;;;2.97;2.30;;;33.40;46.70;;;;;;5073005;28;20209;-88
2022/08/10 12:55:21;;;;;;;1.63;1.52;;;33.50;48.90;;;;;;5073056;28;20290;-87
2022/08/10 12:57:51;;;;;;;2.40;2.20;;;33.60;46.20;;;;;;5072219;28;20264;-88
2022/08/10 13:00:26;;;;;;;1.55;1.45;;;33.60;47.70;;;;;;5072474;28;20232;-88
2022/08/10 13:02:56;;;;;;;4.93;2.65;;;34.00;46.40;;;;;;5072600;28;20218;-87
2022/08/10 13:05:26;;;;;;;1.90;1.80;;;34.00;47.30;;;;;;5072853;28;20204;-88
2022/08/10 13:11:01;;;;;;;2.15;1.95;;;34.20;46.30;;;;;;5072545;28;20224;-88
2022/08/10 13:13:34;;;;;;;1.90;1.80;;;34.10;47.50;;;;;;5072920;28;20264;-88
2022/08/10 13:16:03;;;;;;;1.98;1.85;;;33.80;45.80;;;;;;5073007;28;20219;-88
2022/08/10 13:18:36;;;;;;;2.13;1.92;;;33.60;46.50;;;;;;5072202;28;20299;-87
2022/08/10 13:21:06;;;;;;;2.10;2.00;;;33.60;47.50;;;;;;5072418;28;20303;-88
2022/08/10 13:23:52;;;;;;;3.63;2.30;;;33.40;49.00;;;;;;5072688;28;20204;-88
2022/08/10 13:26:37;;;;;;;2.78;2.17;;;33.60;48.70;;;;;;5072195;28;20269;-88
2022/08/10 13:29:29;;;;;;;1.80;1.70;;;33.70;45.50;;;;;;5072492;28;20205;-88
2022/08/10 13:32:04;;;;;;;2.55;1.63;;;33.60;46.00;;;;;;5072226;28;20240;-87
2022/08/10 13:34:45;;;;;;;2.58;2.30;;;33.50;45.20;;;;;;5072369;28;20258;-87
2022/08/10 13:37:17;;;;;;;2.10;1.90;;;33.10;46.80;;;;;;5072436;28;20200;-88
2022/08/10 13:39:48;;;;;;;1.73;1.63;;;32.80;46.70;;;;;;5072237;28;20296;-88
2022/08/10 13:42:33;;;;;;;2.28;2.08;;;32.30;47.10;;;;;;5072414;28;20236;-88
2022/08/10 13:45:08;;;;;;;1.73;1.63;;;32.30;46.90;;;;;;5072219;28;20277;-88
2022/08/10 13:47:37;;;;;;;2.35;1.60;;;32.30;47.40;;;;;;5072027;28;20212;-87
2022/08/10 13:50:24;;;;;;;1.58;1.33;;;32.40;47.30;;;;;;5071810;28;20224;-88